createdAt,value
2023-01-04T00:01:35.278Z,7.90
2023-01-04T00:04:04.354Z,7.90
2023-01-04T00:06:39.110Z,7.90
2023-01-04T00:09:19.758Z,7.90
2023-01-04T00:12:00.346Z,7.90
2023-01-04T00:14:29.118Z,8.00
2023-01-04T00:16:58.131Z,8.00
2023-01-04T00:19:27.059Z,8.00
2023-01-04T00:21:55.569Z,8.00
2023-01-04T00:24:24.237Z,8.00
2023-01-04T00:26:59.598Z,8.10
2023-01-04T00:29:30.877Z,8.10
2023-01-04T00:32:03.209Z,8.10
2023-01-04T00:34:33.338Z,8.10
2023-01-04T00:37:01.975Z,8.10
2023-01-04T00:39:30.783Z,8.20
2023-01-04T00:42:06.532Z,8.20
2023-01-04T00:44:36.560Z,8.20
2023-01-04T00:47:09.186Z,8.30
2023-01-04T00:49:38.530Z,8.30
2023-01-04T00:52:08.181Z,8.20
2023-01-04T00:54:37.295Z,8.20
2023-01-04T00:57:09.238Z,8.20
2023-01-04T00:59:38.123Z,8.20
2023-01-04T01:02:06.972Z,8.20
2023-01-04T01:04:37.397Z,8.30
2023-01-04T01:07:05.826Z,8.30
2023-01-04T01:09:34.987Z,8.20
2023-01-04T01:12:03.414Z,8.20
2023-01-04T01:14:33.291Z,8.20
2023-01-04T01:17:01.736Z,8.10
2023-01-04T01:19:32.323Z,8.10
2023-01-04T01:22:00.939Z,8.00
2023-01-04T01:24:29.795Z,7.80
2023-01-04T01:26:59.242Z,7.70
2023-01-04T01:29:28.006Z,7.70
2023-01-04T01:31:58.227Z,7.60
2023-01-04T01:34:27.374Z,7.60
2023-01-04T01:36:56.134Z,7.50
2023-01-04T01:39:24.725Z,7.50
2023-01-04T01:41:53.162Z,7.50
2023-01-04T01:45:02.636Z,7.50
2023-01-04T01:47:41.266Z,7.60
2023-01-04T01:50:21.655Z,7.60
2023-01-04T01:52:51.558Z,7.60
2023-01-04T01:55:22.002Z,7.50
2023-01-04T01:57:52.317Z,7.50
2023-01-04T02:00:21.078Z,7.50
2023-01-04T02:02:58.683Z,7.60
2023-01-04T02:05:28.727Z,7.60
2023-01-04T02:07:59.462Z,7.60
2023-01-04T02:10:28.320Z,7.60
2023-01-04T02:12:56.862Z,7.60
2023-01-04T02:15:29.745Z,7.60
2023-01-04T02:18:07.224Z,7.60
2023-01-04T02:20:45.239Z,7.60
2023-01-04T02:23:48.937Z,7.60
2023-01-04T02:27:09.616Z,7.60
2023-01-04T02:30:02.995Z,7.60
2023-01-04T02:32:46.461Z,7.50
2023-01-04T02:35:20.757Z,7.60
2023-01-04T02:37:56.243Z,7.60
2023-01-04T02:40:32.472Z,7.60
2023-01-04T02:43:24.366Z,7.60
2023-01-04T02:45:57.043Z,7.60
2023-01-04T02:48:40.963Z,7.60
2023-01-04T02:51:27.938Z,7.60
2023-01-04T02:53:57.335Z,7.70
2023-01-04T02:56:38.469Z,7.70
2023-01-04T02:59:29.521Z,7.70
2023-01-04T03:02:25.514Z,7.70
2023-01-04T03:05:24.150Z,7.70
2023-01-04T03:07:59.004Z,7.70
2023-01-04T03:10:37.319Z,7.70
2023-01-04T03:13:09.149Z,7.70
2023-01-04T03:15:41.339Z,7.80
2023-01-04T03:18:16.246Z,7.70
2023-01-04T03:20:48.292Z,7.80
2023-01-04T03:23:38.129Z,7.80
2023-01-04T03:26:26.965Z,7.80
2023-01-04T03:29:17.538Z,7.80
2023-01-04T03:32:05.988Z,7.90
2023-01-04T03:34:52.413Z,7.90
2023-01-04T03:37:34.155Z,7.90
2023-01-04T03:40:36.052Z,8.00
2023-01-04T03:43:26.320Z,8.00
2023-01-04T03:46:16.099Z,8.00
2023-01-04T03:48:50.567Z,8.00
2023-01-04T03:51:22.960Z,8.00
2023-01-04T03:53:59.107Z,8.00
2023-01-04T03:56:29.821Z,8.10
2023-01-04T03:58:58.543Z,8.00
2023-01-04T04:01:28.574Z,8.10
2023-01-04T04:04:14.862Z,8.10
2023-01-04T04:07:00.862Z,8.10
2023-01-04T04:09:30.824Z,8.10
2023-01-04T04:11:59.707Z,8.10
2023-01-04T04:14:28.187Z,8.10
2023-01-04T04:16:56.880Z,8.10
2023-01-04T04:19:25.357Z,8.20
2023-01-04T04:21:53.734Z,8.20
2023-01-04T04:24:24.508Z,8.20
2023-01-04T04:26:56.002Z,8.20
2023-01-04T04:29:25.841Z,8.30
2023-01-04T04:31:54.619Z,8.30
2023-01-04T04:34:23.175Z,8.30
2023-01-04T04:36:51.717Z,8.30
2023-01-04T04:39:20.345Z,8.30
2023-01-04T04:41:47.843Z,8.30
2023-01-04T04:44:20.452Z,8.40
2023-01-04T04:46:49.834Z,8.40
2023-01-04T04:49:19.141Z,8.40
2023-01-04T04:51:48.290Z,8.40
2023-01-04T04:54:18.261Z,8.40
2023-01-04T04:56:46.753Z,8.40
2023-01-04T04:59:15.649Z,8.40
2023-01-04T05:01:45.655Z,8.40
2023-01-04T05:04:17.178Z,8.40
2023-01-04T05:06:46.104Z,8.50
2023-01-04T05:09:15.066Z,8.50
2023-01-04T05:12:01.579Z,8.50
2023-01-04T05:14:30.263Z,8.50
2023-01-04T05:17:01.034Z,8.60
2023-01-04T05:19:29.654Z,8.60
2023-01-04T05:21:57.956Z,8.70
2023-01-04T05:24:26.479Z,8.70
2023-01-04T05:26:55.042Z,8.80
2023-01-04T05:29:40.730Z,8.80
2023-01-04T05:32:10.608Z,8.80
2023-01-04T05:34:39.234Z,8.90
2023-01-04T05:37:07.647Z,8.90
2023-01-04T05:39:36.064Z,8.90
2023-01-04T05:42:21.693Z,8.90
2023-01-04T05:44:50.066Z,9.00
2023-01-04T05:47:20.033Z,9.00
2023-01-04T05:49:49.734Z,9.00
2023-01-04T05:52:18.359Z,9.00
2023-01-04T05:54:46.889Z,9.10
2023-01-04T05:57:16.420Z,9.10
2023-01-04T05:59:44.953Z,9.10
2023-01-04T06:02:24.573Z,9.10
2023-01-04T06:04:58.876Z,9.10
2023-01-04T06:07:28.110Z,9.10
2023-01-04T06:09:56.502Z,9.10
2023-01-04T06:12:26.524Z,9.20
2023-01-04T06:14:55.112Z,9.20
2023-01-04T06:17:25.568Z,9.30
2023-01-04T06:19:54.045Z,9.30
2023-01-04T06:22:22.800Z,9.30
2023-01-04T06:24:51.216Z,9.40
2023-01-04T06:27:19.893Z,9.40
2023-01-04T06:29:48.278Z,9.40
2023-01-04T06:32:16.753Z,9.40
2023-01-04T06:34:46.538Z,9.40
2023-01-04T06:37:15.052Z,9.40
2023-01-04T06:39:43.556Z,9.40
2023-01-04T06:42:32.747Z,9.40
2023-01-04T06:45:01.140Z,9.50
2023-01-04T06:47:29.513Z,9.50
2023-01-04T06:49:59.331Z,9.50
2023-01-04T06:52:27.688Z,9.50
2023-01-04T06:54:56.181Z,9.50
2023-01-04T06:57:25.404Z,9.50
2023-01-04T06:59:53.938Z,9.50
2023-01-04T07:02:22.552Z,9.50
2023-01-04T07:04:51.221Z,9.60
2023-01-04T07:07:21.530Z,9.50
2023-01-04T07:09:50.129Z,9.60
2023-01-04T07:12:18.968Z,9.60
2023-01-04T07:14:47.373Z,9.60
2023-01-04T07:17:15.729Z,9.60
2023-01-04T07:19:44.557Z,9.70
2023-01-04T07:22:13.274Z,9.70
2023-01-04T07:24:43.973Z,9.70
2023-01-04T07:27:12.987Z,9.80
2023-01-04T07:29:43.990Z,9.80
2023-01-04T07:32:14.184Z,9.80
2023-01-04T07:34:43.437Z,9.80
2023-01-04T07:37:13.220Z,9.80
2023-01-04T07:39:44.002Z,9.80
2023-01-04T07:42:12.826Z,9.80
2023-01-04T07:44:41.721Z,9.80
2023-01-04T07:47:10.592Z,9.80
2023-01-04T07:49:39.263Z,9.80
2023-01-04T07:52:12.175Z,9.80
2023-01-04T07:54:42.493Z,9.80
2023-01-04T07:57:10.919Z,9.80
2023-01-04T07:59:39.308Z,9.80
2023-01-04T08:02:08.633Z,9.80
2023-01-04T08:04:37.741Z,9.80
2023-01-04T08:07:08.924Z,9.80
2023-01-04T08:09:37.833Z,9.80
2023-01-04T08:12:07.931Z,9.90
2023-01-04T08:14:36.341Z,9.80
2023-01-04T08:17:04.889Z,9.90
2023-01-04T08:19:33.924Z,9.90
2023-01-04T08:22:02.421Z,9.90
2023-01-04T08:24:30.967Z,9.90
2023-01-04T08:26:59.744Z,10.00
2023-01-04T08:29:34.994Z,10.00
2023-01-04T08:32:11.985Z,10.00
2023-01-04T08:34:40.701Z,10.00
2023-01-04T08:37:09.546Z,10.00
2023-01-04T08:39:41.951Z,10.10
2023-01-04T08:42:20.899Z,10.10
2023-01-04T08:44:58.703Z,10.10
2023-01-04T08:47:29.681Z,10.10
2023-01-04T08:49:58.836Z,10.20
2023-01-04T08:52:27.863Z,10.20
2023-01-04T08:54:56.292Z,10.20
2023-01-04T08:57:25.536Z,10.20
2023-01-04T08:59:56.509Z,10.20
2023-01-04T09:02:27.800Z,10.20
2023-01-04T09:05:03.348Z,10.30
2023-01-04T09:07:36.542Z,10.30
2023-01-04T09:10:09.420Z,10.30
2023-01-04T09:12:38.678Z,10.30
2023-01-04T09:15:09.883Z,10.30
2023-01-04T09:17:57.935Z,10.30
2023-01-04T09:20:30.328Z,10.30
2023-01-04T09:22:59.862Z,10.30
2023-01-04T09:25:28.689Z,10.30
2023-01-04T09:28:06.012Z,10.30
2023-01-04T09:30:36.505Z,10.30
2023-01-04T09:33:05.991Z,10.30
2023-01-04T09:35:38.569Z,10.40
2023-01-04T09:38:07.579Z,10.40
2023-01-04T09:40:48.935Z,10.40
2023-01-04T09:43:22.633Z,10.40
2023-01-04T09:45:58.730Z,10.40
2023-01-04T09:48:32.747Z,10.50
2023-01-04T09:51:08.618Z,10.50
2023-01-04T09:53:44.445Z,10.50
2023-01-04T09:56:25.891Z,10.50
2023-01-04T09:58:59.170Z,10.50
2023-01-04T10:01:37.464Z,10.50
2023-01-04T10:04:14.564Z,10.50
2023-01-04T10:06:43.922Z,10.50
2023-01-04T10:09:18.296Z,10.50
2023-01-04T10:12:13.004Z,10.50
2023-01-04T10:14:56.927Z,10.50
2023-01-04T10:18:51.884Z,10.50
2023-01-04T10:24:02.343Z,10.50
2023-01-04T10:26:39.599Z,10.50
2023-01-04T10:29:49.041Z,10.60
2023-01-04T10:32:33.500Z,10.60
2023-01-04T10:35:20.060Z,10.60
2023-01-04T10:37:53.109Z,10.60
2023-01-04T10:40:26.354Z,10.60
2023-01-04T10:43:03.896Z,10.70
2023-01-04T10:45:41.874Z,10.70
2023-01-04T10:48:20.179Z,10.70
2023-01-04T10:51:07.324Z,10.70
2023-01-04T10:53:47.441Z,10.70
2023-01-04T10:56:32.746Z,10.70
2023-01-04T10:59:09.005Z,10.70
2023-01-04T11:01:52.821Z,10.70
2023-01-04T11:04:31.227Z,10.70
2023-01-04T11:07:09.627Z,10.80
2023-01-04T11:09:47.754Z,10.80
2023-01-04T11:12:25.101Z,10.80
2023-01-04T11:14:55.643Z,10.80
2023-01-04T11:17:45.149Z,10.80
2023-01-04T11:20:15.501Z,10.80
2023-01-04T11:22:59.429Z,10.80
2023-01-04T11:25:35.851Z,10.80
2023-01-04T11:28:26.242Z,10.80
2023-01-04T11:31:10.439Z,10.90
2023-01-04T11:34:08.867Z,10.80
2023-01-04T11:36:44.395Z,10.90
2023-01-04T11:39:32.798Z,10.90
2023-01-04T11:42:12.270Z,10.90
2023-01-04T11:45:03.671Z,10.90
2023-01-04T11:47:33.463Z,10.90
2023-01-04T11:50:02.829Z,10.90
2023-01-04T11:52:48.313Z,10.90
2023-01-04T11:55:29.563Z,10.90
2023-01-04T11:58:19.028Z,10.90
2023-01-04T12:00:57.432Z,11.00
2023-01-04T12:03:33.476Z,10.90
2023-01-04T12:06:05.792Z,11.00
2023-01-04T12:08:45.352Z,11.00
2023-01-04T12:11:26.787Z,11.00
2023-01-04T12:13:58.952Z,11.00
2023-01-04T12:16:45.703Z,11.00
2023-01-04T12:19:19.519Z,11.00
2023-01-04T12:21:52.115Z,11.00
2023-01-04T12:24:29.044Z,11.10
2023-01-04T12:27:03.868Z,11.10
2023-01-04T12:29:58.861Z,11.10
2023-01-04T12:32:46.439Z,11.10
2023-01-04T12:35:58.758Z,11.10
2023-01-04T12:39:29.176Z,11.10
2023-01-04T12:42:29.956Z,11.10
2023-01-04T12:45:21.485Z,11.10
2023-01-04T12:48:12.052Z,11.20
2023-01-04T12:51:32.351Z,11.20
2023-01-04T12:54:32.421Z,11.20
2023-01-04T12:57:30.659Z,11.20
2023-01-04T13:00:08.161Z,11.20
2023-01-04T13:02:49.346Z,11.30
2023-01-04T13:05:57.505Z,11.30
2023-01-04T13:08:27.892Z,11.30
2023-01-04T13:10:58.489Z,11.30
2023-01-04T13:13:48.985Z,11.30
2023-01-04T13:16:33.570Z,11.30
2023-01-04T13:19:12.965Z,11.30
2023-01-04T13:21:49.075Z,11.30
2023-01-04T13:24:28.445Z,11.30
2023-01-04T13:26:58.784Z,11.40
2023-01-04T13:29:40.390Z,11.40
2023-01-04T13:32:23.279Z,11.40
2023-01-04T13:35:08.350Z,11.40
2023-01-04T13:37:50.061Z,11.40
2023-01-04T13:40:28.013Z,11.40
2023-01-04T13:43:15.165Z,11.50
2023-01-04T13:46:09.027Z,11.40
2023-01-04T13:48:42.422Z,11.40
2023-01-04T13:51:20.693Z,11.50
2023-01-04T13:54:01.695Z,11.50
2023-01-04T13:56:35.244Z,11.50
2023-01-04T13:59:05.048Z,11.50
2023-01-04T14:01:39.887Z,11.50
2023-01-04T14:04:19.215Z,11.50
2023-01-04T14:07:01.942Z,11.50
2023-01-04T14:09:41.741Z,11.50
2023-01-04T14:12:17.582Z,11.50
2023-01-04T14:14:59.739Z,11.50
2023-01-04T14:17:53.653Z,11.50
2023-01-04T14:20:53.190Z,11.50
2023-01-04T14:23:33.498Z,11.50
2023-01-04T14:26:10.177Z,11.50
2023-01-04T14:28:50.355Z,11.50
2023-01-04T14:31:27.464Z,11.50
2023-01-04T14:34:04.884Z,11.50
2023-01-04T14:36:44.736Z,11.50
2023-01-04T14:39:32.550Z,11.50
2023-01-04T14:42:02.473Z,11.50
2023-01-04T14:44:48.697Z,11.50
2023-01-04T14:47:19.095Z,11.40
2023-01-04T14:49:53.328Z,11.50
2023-01-04T14:52:28.847Z,11.40
2023-01-04T14:55:00.237Z,11.40
2023-01-04T14:57:38.152Z,11.40
2023-01-04T15:00:35.101Z,11.50
2023-01-04T15:03:08.295Z,11.50
2023-01-04T15:05:53.823Z,11.40
2023-01-04T15:08:28.115Z,11.50
2023-01-04T15:11:05.455Z,11.40
2023-01-04T15:13:40.109Z,11.50
2023-01-04T15:16:16.451Z,11.50
2023-01-04T15:18:54.095Z,11.50
2023-01-04T15:21:26.892Z,11.50
2023-01-04T15:24:02.619Z,11.50
2023-01-04T15:26:42.704Z,11.50
2023-01-04T15:29:14.759Z,11.50
2023-01-04T15:31:58.772Z,11.50
2023-01-04T15:34:46.615Z,11.50
2023-01-04T15:37:23.510Z,11.50
2023-01-04T15:39:56.859Z,11.50
2023-01-04T15:42:47.998Z,11.50
2023-01-04T15:45:29.709Z,11.50
2023-01-04T15:48:06.580Z,11.50
2023-01-04T15:50:40.038Z,11.50
2023-01-04T15:53:20.251Z,11.40
2023-01-04T15:55:49.081Z,11.40
2023-01-04T15:58:26.057Z,11.40
2023-01-04T16:01:01.229Z,11.40
2023-01-04T16:03:36.498Z,11.40
2023-01-04T16:06:09.408Z,11.40
2023-01-04T16:08:39.866Z,11.40
2023-01-04T16:11:14.694Z,11.30
2023-01-04T16:13:50.332Z,11.30
2023-01-04T16:16:31.451Z,11.30
2023-01-04T16:19:09.537Z,11.30
2023-01-04T16:21:45.398Z,11.30
2023-01-04T16:24:45.306Z,11.30
2023-01-04T16:27:15.115Z,11.30
2023-01-04T16:29:44.260Z,11.30
2023-01-04T16:32:20.603Z,11.40
2023-01-04T16:34:52.212Z,11.40
2023-01-04T16:37:23.810Z,11.40
2023-01-04T16:40:12.893Z,11.40
2023-01-04T16:42:51.824Z,11.40
2023-01-04T16:45:26.099Z,11.50
2023-01-04T16:47:56.757Z,11.50
2023-01-04T16:50:27.553Z,11.50
2023-01-04T16:52:56.246Z,11.50
2023-01-04T16:55:26.682Z,11.50
2023-01-04T16:57:55.760Z,11.50
2023-01-04T17:00:25.373Z,11.50
2023-01-04T17:02:55.627Z,11.40
2023-01-04T17:05:26.199Z,11.40
2023-01-04T17:08:03.926Z,11.50
2023-01-04T17:10:40.897Z,11.50
2023-01-04T17:13:20.320Z,11.50
2023-01-04T17:15:51.549Z,11.50
2023-01-04T17:18:22.827Z,11.50
2023-01-04T17:21:11.140Z,11.50
2023-01-04T17:24:02.207Z,11.50
2023-01-04T17:26:38.238Z,11.50
2023-01-04T17:29:19.353Z,11.50
2023-01-04T17:31:54.642Z,11.50
2023-01-04T17:34:24.547Z,11.50
2023-01-04T17:36:58.981Z,11.50
2023-01-04T17:39:31.102Z,11.40
2023-01-04T17:42:01.781Z,11.40
2023-01-04T17:44:31.636Z,11.40
2023-01-04T17:47:02.115Z,11.40
2023-01-04T17:49:35.950Z,11.40
2023-01-04T17:52:09.131Z,11.40
2023-01-04T17:54:48.232Z,11.40
2023-01-04T17:57:19.881Z,11.40
2023-01-04T17:59:56.446Z,11.40
2023-01-04T18:05:14.374Z,11.40
2023-01-04T18:07:43.973Z,11.40
2023-01-04T18:10:27.072Z,11.50
2023-01-04T18:13:09.768Z,11.50
2023-01-04T18:16:18.349Z,11.40
2023-01-04T18:18:44.000Z,11.40
2023-01-04T18:21:28.626Z,11.40
2023-01-04T18:27:24.561Z,11.40
2023-01-04T18:29:45.315Z,11.40
2023-01-04T18:32:16.657Z,11.40
2023-01-04T18:34:54.794Z,11.40
2023-01-04T18:37:28.409Z,11.40
2023-01-04T18:39:57.901Z,11.40
2023-01-04T18:42:29.071Z,11.40
2023-01-04T18:45:10.897Z,11.40
2023-01-04T18:47:40.743Z,11.40
2023-01-04T18:50:15.805Z,11.40
2023-01-04T18:52:47.947Z,11.40
2023-01-04T18:55:21.963Z,11.30
2023-01-04T18:58:01.104Z,11.30
2023-01-04T19:00:41.985Z,11.30
2023-01-04T19:03:21.892Z,11.30
2023-01-04T19:05:53.895Z,11.30
2023-01-04T19:08:34.262Z,11.30
2023-01-04T19:11:06.511Z,11.30
2023-01-04T19:13:55.658Z,11.30
2023-01-04T19:16:32.713Z,11.30
2023-01-04T19:19:14.704Z,11.30
2023-01-04T19:21:43.404Z,11.30
2023-01-04T19:24:20.930Z,11.30
2023-01-04T19:26:56.343Z,11.20
2023-01-04T19:29:52.671Z,11.20
2023-01-04T19:32:33.398Z,11.20
2023-01-04T19:35:07.632Z,11.20
2023-01-04T19:37:40.308Z,11.20
2023-01-04T19:40:11.149Z,11.10
2023-01-04T19:42:41.840Z,11.10
2023-01-04T19:45:12.281Z,11.10
2023-01-04T19:47:42.665Z,11.10
2023-01-04T19:50:18.431Z,11.10
2023-01-04T19:52:52.116Z,11.10
2023-01-04T19:55:24.960Z,11.10
2023-01-04T19:58:03.391Z,11.10
2023-01-04T20:00:41.357Z,11.10
2023-01-04T20:03:15.852Z,11.10
2023-01-04T20:05:52.416Z,11.10
2023-01-04T20:08:26.648Z,11.10
2023-01-04T20:11:01.221Z,11.10
2023-01-04T20:13:31.685Z,11.10
2023-01-04T20:16:01.667Z,11.10
2023-01-04T20:18:32.079Z,11.10
2023-01-04T20:21:00.857Z,11.10
2023-01-04T20:23:29.957Z,11.10
2023-01-04T20:26:00.448Z,11.10
2023-01-04T20:28:29.904Z,11.10
2023-01-04T20:31:05.255Z,11.10
2023-01-04T20:33:35.369Z,11.10
2023-01-04T20:36:08.334Z,11.10
2023-01-04T20:38:40.719Z,11.10
2023-01-04T20:41:17.926Z,11.10
2023-01-04T20:43:47.352Z,11.10
2023-01-04T20:46:22.132Z,11.10
2023-01-04T20:48:55.445Z,11.10
2023-01-04T20:51:27.063Z,11.10
2023-01-04T20:54:01.884Z,11.10
2023-01-04T20:56:37.750Z,11.10
2023-01-04T20:59:09.926Z,11.10
2023-01-04T21:01:43.715Z,11.10
2023-01-04T21:04:19.142Z,11.20
2023-01-04T21:07:01.365Z,11.10
2023-01-04T21:09:46.548Z,11.10
2023-01-04T21:12:21.216Z,11.10
2023-01-04T21:14:50.880Z,11.10
2023-01-04T21:17:21.981Z,11.10
2023-01-04T21:20:00.615Z,11.00
2023-01-04T21:22:31.535Z,11.00
2023-01-04T21:25:00.963Z,11.00
2023-01-04T21:27:33.343Z,10.90
2023-01-04T21:30:04.011Z,10.90
2023-01-04T21:32:36.755Z,10.90
2023-01-04T21:35:12.025Z,10.90
2023-01-04T21:37:45.905Z,10.90
2023-01-04T21:40:18.714Z,10.80
2023-01-04T21:42:54.676Z,10.80
2023-01-04T21:45:33.031Z,10.80
2023-01-04T21:48:05.357Z,10.80
2023-01-04T21:50:40.017Z,10.80
2023-01-04T21:53:09.377Z,10.80
2023-01-04T21:55:41.202Z,10.80
2023-01-04T21:58:11.755Z,10.80
2023-01-04T22:00:44.091Z,10.80
2023-01-04T22:03:15.046Z,10.80
2023-01-04T22:05:51.606Z,10.90
2023-01-04T22:08:20.595Z,10.80
2023-01-04T22:11:20.413Z,10.80
2023-01-04T22:14:10.153Z,10.80
2023-01-04T22:16:40.950Z,10.90
2023-01-04T22:19:17.052Z,10.90
2023-01-04T22:21:47.358Z,10.90
2023-01-04T22:24:20.161Z,10.90
2023-01-04T22:26:51.084Z,10.90
2023-01-04T22:29:20.794Z,10.90
2023-01-04T22:31:54.347Z,10.90
2023-01-04T22:34:28.390Z,10.90
2023-01-04T22:37:04.802Z,10.90
2023-01-04T22:39:33.399Z,10.90
2023-01-04T22:42:08.359Z,10.90
2023-01-04T22:44:37.811Z,10.90
2023-01-04T22:47:09.938Z,10.90
2023-01-04T22:49:39.125Z,10.90
2023-01-04T22:52:11.252Z,10.90
2023-01-04T22:54:44.367Z,10.90
2023-01-04T22:57:21.359Z,10.90
2023-01-04T22:59:51.072Z,10.90
2023-01-04T23:02:21.802Z,10.90
2023-01-04T23:04:50.441Z,10.90
2023-01-04T23:07:20.771Z,10.90
2023-01-04T23:09:49.542Z,10.90
2023-01-04T23:12:20.114Z,10.90
2023-01-04T23:14:48.884Z,10.80
2023-01-04T23:17:21.129Z,10.80
2023-01-04T23:19:49.927Z,10.80
2023-01-04T23:22:20.125Z,10.80
2023-01-04T23:24:50.016Z,10.80
2023-01-04T23:27:22.161Z,10.80
2023-01-04T23:29:50.700Z,10.80
2023-01-04T23:32:20.362Z,10.80
2023-01-04T23:34:52.272Z,10.80
2023-01-04T23:37:22.509Z,10.80
2023-01-04T23:39:51.431Z,10.80
2023-01-04T23:42:20.995Z,10.80
2023-01-04T23:44:50.084Z,10.80
2023-01-04T23:47:19.189Z,10.80
2023-01-04T23:49:49.166Z,10.80
2023-01-04T23:52:17.874Z,10.80
2023-01-04T23:54:47.835Z,10.80
2023-01-04T23:57:17.299Z,10.80
2023-01-04T23:59:45.823Z,10.80
